< Typhoon 199435 1994 Season Typhoon 199501 >
Typhoon 199436 (BOBBIE)
General InformationTrack Information on Google MapsDetailed Wind InformationList of All Images || Disaster Info.ResourceGoogle EarthGE AnimationAtom FeedGeoJSON
Detalied Best Track (Time Zone = UTC)
Year Month Day Hour Lat. Long. Pressure (hPa) Wind (kt) Class Image Chart
1994 12 18 06 6.5 166.0 1000 0 2 Image Chart
1994 12 18 12 6.0 164.5 1000 0 2 Image Chart
1994 12 18 18 5.5 163.0 1000 0 2 Image Chart
1994 12 19 00 5.5 162.0 1000 0 2 Image Chart
1994 12 19 06 6.0 161.0 998 0 2 Image Chart
1994 12 19 12 6.6 160.5 996 35 3 Image Chart
1994 12 19 18 7.4 159.8 996 35 3 Image Chart
1994 12 20 00 8.6 159.6 994 35 3 Image Chart
1994 12 20 06 9.7 159.7 994 35 3 Image Chart
1994 12 20 12 10.8 159.2 994 35 3 Image Chart
1994 12 20 18 11.7 158.2 994 35 3 Image Chart
1994 12 21 00 12.4 157.2 992 40 3 Image Chart
1994 12 21 06 12.8 155.9 992 40 3 Image Chart
1994 12 21 12 13.2 154.2 992 40 3 Image Chart
1994 12 21 18 13.6 152.5 990 45 3 Image Chart
1994 12 22 00 14.0 151.0 990 45 3 Image Chart
1994 12 22 06 14.5 149.8 990 45 3 Image Chart
1994 12 22 12 15.2 148.5 990 45 3 Image Chart
1994 12 22 18 15.6 147.7 990 45 3 Image Chart
1994 12 23 00 16.0 146.9 990 45 3 Image Chart
1994 12 23 06 16.3 145.7 985 50 4 Image Chart
1994 12 23 12 16.5 144.3 985 50 4 Image Chart
1994 12 23 18 16.7 143.0 985 50 4 Image Chart
1994 12 24 00 17.0 141.9 985 50 4 Image Chart
1994 12 24 06 17.5 140.7 990 45 3 Image Chart
1994 12 24 12 18.4 139.7 992 40 3 Image Chart
1994 12 24 18 19.0 138.6 996 35 3 Image Chart
1994 12 25 00 19.4 137.4 1000 0 2 Image Chart
1994 12 25 06 19.5 136.6 1000 0 2 Image Chart
1994 12 25 12 19.6 135.7 1000 0 2 Image Chart
1994 12 25 18 19.7 135.0 1002 0 2 Image Chart
1994 12 26 00 20.0 134.5 1004 0 2 Image Chart
1994 12 26 06 21.5 134.7 1004 0 6 Image Chart
1994 12 26 12 23.0 136.5 1004 0 6 Image Chart
1994 12 26 18 24.7 139.0 1004 0 6 Image Chart
1994 12 27 00 26.0 141.0 1004 0 6 Image Chart
1994 12 27 06 27.8 144.2 1004 0 6 Image Chart
1994 12 27 12 29.0 147.0 1006 0 6 Image Chart
1994 12 27 18 30.5 150.0 1006 0 6 Image Chart
1994 12 28 00 32.0 153.0 1004 0 6 Image Chart
1994 12 28 06 34.0 155.0 998 0 6 Image Chart
1994 12 28 12 36.5 160.5 994 0 6 Image Chart
1994 12 28 18 40.0 166.0 988 0 6 Image Chart
1994 12 29 00 42.5 171.5 980 0 6 Image Chart
1994 12 29 06 45.0 177.0 972 0 6 Image Chart
1994 12 29 12 46.5 182.0 968 0 6 Image Chart
Japan Meteorological Agency Best Track Data | Correction Date : 1995-01-30
< Typhoon 199435 1994 Season Typhoon 199501 >

Help